createdAt,value
2023-06-30T00:01:35.741Z,101770.69
2023-06-30T00:04:06.101Z,101777.38
2023-06-30T00:06:34.601Z,101770.28
2023-06-30T00:09:07.288Z,101752.13
2023-06-30T00:11:35.416Z,101754.81
2023-06-30T00:14:03.688Z,101768.09
2023-06-30T00:16:32.987Z,101748.22
2023-06-30T00:19:01.861Z,101743.81
2023-06-30T00:21:30.277Z,101737.34
2023-06-30T00:24:05.411Z,101733.78
2023-06-30T00:26:34.992Z,101733.41
2023-06-30T00:29:03.285Z,101733.41
2023-06-30T00:31:32.050Z,101722.28
2023-06-30T00:34:01.010Z,101721.94
2023-06-30T00:36:30.317Z,101723.25
2023-06-30T00:39:01.436Z,101715.00
2023-06-30T00:41:30.102Z,101715.00
2023-06-30T00:44:00.438Z,101717.75
2023-06-30T00:46:28.495Z,101712.50
2023-06-30T00:48:57.324Z,101712.78
2023-06-30T00:51:25.604Z,101708.53
2023-06-30T00:53:53.629Z,101707.56
2023-06-30T00:56:21.679Z,101711.75
2023-06-30T00:58:49.681Z,101702.13
2023-06-30T01:01:24.190Z,101698.09
2023-06-30T01:03:53.928Z,101693.00
2023-06-30T01:06:27.303Z,101690.97
2023-06-30T01:08:57.309Z,101685.59
2023-06-30T01:11:25.580Z,101684.78
2023-06-30T01:13:53.937Z,101679.56
2023-06-30T01:16:23.560Z,101679.56
2023-06-30T01:18:54.188Z,101674.00
2023-06-30T01:21:24.116Z,101665.78
2023-06-30T01:23:54.466Z,101668.47
2023-06-30T01:26:22.849Z,101667.78
2023-06-30T01:28:52.223Z,101661.56
2023-06-30T01:31:21.422Z,101660.78
2023-06-30T01:33:51.301Z,101654.41
2023-06-30T01:36:19.421Z,101648.00
2023-06-30T01:38:47.769Z,101652.25
2023-06-30T01:41:18.742Z,101652.81
2023-06-30T01:43:46.971Z,101643.81
2023-06-30T01:46:15.253Z,101635.41
2023-06-30T01:48:44.378Z,101638.22
2023-06-30T01:51:16.963Z,101640.16
2023-06-30T01:53:45.416Z,101633.63
2023-06-30T01:56:14.262Z,101633.25
2023-06-30T01:58:42.299Z,101629.91
2023-06-30T02:01:10.478Z,101621.19
2023-06-30T02:03:38.918Z,101628.97
2023-06-30T02:06:07.082Z,101620.56
2023-06-30T02:08:39.086Z,101616.53
2023-06-30T02:11:07.392Z,101610.44
2023-06-30T02:13:35.662Z,101617.09
2023-06-30T02:16:03.922Z,101601.47
2023-06-30T02:18:32.022Z,101604.63
2023-06-30T02:21:02.100Z,101598.22
2023-06-30T02:23:31.355Z,101593.50
2023-06-30T02:26:01.378Z,101594.06
2023-06-30T02:28:29.405Z,101596.09
2023-06-30T02:30:57.464Z,101596.94
2023-06-30T02:33:25.621Z,101596.94
2023-06-30T02:35:54.337Z,101587.84
2023-06-30T02:38:22.405Z,101584.16
2023-06-30T02:40:50.456Z,101579.13
2023-06-30T02:43:20.005Z,101584.50
2023-06-30T02:45:48.582Z,101571.06
2023-06-30T02:48:17.110Z,101577.44
2023-06-30T02:50:45.936Z,101565.19
2023-06-30T02:53:16.363Z,101565.38
2023-06-30T02:55:44.631Z,101569.09
2023-06-30T02:58:16.368Z,101570.94
2023-06-30T03:00:45.830Z,101566.56
2023-06-30T03:03:13.936Z,101565.06
2023-06-30T03:05:43.790Z,101553.31
2023-06-30T03:08:13.422Z,101553.31
2023-06-30T03:10:43.989Z,101554.31
2023-06-30T03:13:12.001Z,101546.25
2023-06-30T03:15:42.342Z,101552.28
2023-06-30T03:18:11.810Z,101549.78
2023-06-30T03:20:43.118Z,101544.22
2023-06-30T03:23:11.543Z,101544.56
2023-06-30T03:25:41.019Z,101546.75
2023-06-30T03:28:11.367Z,101542.66
2023-06-30T03:30:39.918Z,101541.88
2023-06-30T03:33:09.324Z,101533.97
2023-06-30T03:35:38.783Z,101532.63
2023-06-30T03:38:06.980Z,101528.75
2023-06-30T03:40:35.083Z,101510.78
2023-06-30T03:43:04.082Z,101524.94
2023-06-30T03:45:33.170Z,101515.81
2023-06-30T03:48:01.619Z,101510.66
2023-06-30T03:50:31.846Z,101512.84
2023-06-30T03:53:02.100Z,101505.00
2023-06-30T03:55:30.499Z,101519.38
2023-06-30T03:57:58.907Z,101503.25
2023-06-30T04:00:26.897Z,101505.75
2023-06-30T04:02:55.221Z,101495.84
2023-06-30T04:05:24.325Z,101500.88
2023-06-30T04:07:52.365Z,101491.41
2023-06-30T04:10:21.772Z,101493.09
2023-06-30T04:12:49.780Z,101483.34
2023-06-30T04:15:17.825Z,101484.03
2023-06-30T04:17:46.115Z,101482.00
2023-06-30T04:20:19.409Z,101487.72
2023-06-30T04:22:48.405Z,101482.06
2023-06-30T04:25:16.464Z,101482.13
2023-06-30T04:27:45.971Z,101478.47
2023-06-30T04:30:15.567Z,101495.59
2023-06-30T04:32:44.026Z,101487.94
2023-06-30T04:35:15.037Z,101473.88
2023-06-30T04:37:43.459Z,101470.91
2023-06-30T04:40:12.376Z,101471.66
2023-06-30T04:42:40.565Z,101473.56
2023-06-30T04:45:11.495Z,101463.31
2023-06-30T04:47:39.982Z,101457.16
2023-06-30T04:50:09.717Z,101461.44
2023-06-30T04:52:37.784Z,101460.94
2023-06-30T04:55:06.656Z,101444.72
2023-06-30T04:57:37.645Z,101455.16
2023-06-30T05:00:07.910Z,101445.41
2023-06-30T05:02:37.728Z,101448.78
2023-06-30T05:05:07.163Z,101445.56
2023-06-30T05:07:35.340Z,101440.34
2023-06-30T05:10:04.296Z,101440.00
2023-06-30T05:12:33.799Z,101429.91
2023-06-30T05:15:02.158Z,101424.22
2023-06-30T05:17:31.097Z,101433.00
2023-06-30T05:20:06.309Z,101434.03
2023-06-30T05:22:35.882Z,101412.25
2023-06-30T05:25:04.114Z,101419.97
2023-06-30T05:27:32.520Z,101416.47
2023-06-30T05:30:01.968Z,101416.97
2023-06-30T05:32:30.472Z,101411.16
2023-06-30T05:34:58.488Z,101411.34
2023-06-30T05:37:28.931Z,101418.38
2023-06-30T05:39:58.230Z,101399.63
2023-06-30T05:42:26.363Z,101396.78
2023-06-30T05:44:54.377Z,101391.44
2023-06-30T05:47:22.871Z,101401.47
2023-06-30T05:49:50.858Z,101402.44
2023-06-30T05:52:22.822Z,101398.63
2023-06-30T05:54:52.329Z,101400.97
2023-06-30T05:57:20.593Z,101396.59
2023-06-30T05:59:48.994Z,101393.22
2023-06-30T06:02:17.098Z,101382.78
2023-06-30T06:04:45.708Z,101393.19
2023-06-30T06:07:14.930Z,101385.66
2023-06-30T06:09:43.465Z,101384.66
2023-06-30T06:12:13.033Z,101382.38
2023-06-30T06:14:42.385Z,101383.88
2023-06-30T06:17:10.566Z,101379.84
2023-06-30T06:19:38.611Z,101373.81
2023-06-30T06:22:08.416Z,101372.19
2023-06-30T06:24:39.184Z,101366.63
2023-06-30T06:27:07.824Z,101375.50
2023-06-30T06:29:37.534Z,101368.13
2023-06-30T06:32:06.675Z,101365.75
2023-06-30T06:34:36.032Z,101368.13
2023-06-30T06:37:04.308Z,101365.13
2023-06-30T06:39:33.222Z,101367.59
2023-06-30T06:42:01.494Z,101359.06
2023-06-30T06:44:30.900Z,101357.53
2023-06-30T06:47:37.295Z,101344.94
2023-06-30T06:50:07.818Z,101347.06
2023-06-30T06:52:36.360Z,101340.66
2023-06-30T06:55:05.316Z,101341.13
2023-06-30T06:57:33.355Z,101332.06
2023-06-30T07:00:03.783Z,101338.41
2023-06-30T07:02:37.139Z,101338.91
2023-06-30T07:05:07.589Z,101335.22
2023-06-30T07:07:35.842Z,101331.16
2023-06-30T07:10:06.893Z,101334.31
2023-06-30T07:12:34.899Z,101342.66
2023-06-30T07:15:02.918Z,101341.44
2023-06-30T07:17:30.946Z,101348.03
2023-06-30T07:19:58.972Z,101345.16
2023-06-30T07:22:28.825Z,101345.63
2023-06-30T07:24:58.054Z,101343.25
2023-06-30T07:27:26.939Z,101336.97
2023-06-30T07:29:55.397Z,101336.13
2023-06-30T07:32:26.830Z,101330.34
2023-06-30T07:34:55.717Z,101332.28
2023-06-30T07:37:24.811Z,101326.84
2023-06-30T07:39:57.948Z,101323.44
2023-06-30T07:42:28.236Z,101319.91
2023-06-30T07:44:58.048Z,101323.50
2023-06-30T07:47:27.024Z,101320.88
2023-06-30T07:49:55.528Z,101310.53
2023-06-30T07:52:26.741Z,101318.38
2023-06-30T07:54:57.110Z,101313.50
2023-06-30T07:57:27.991Z,101314.06
2023-06-30T07:59:58.564Z,101313.72
2023-06-30T08:02:29.154Z,101317.06
2023-06-30T08:04:57.754Z,101302.22
2023-06-30T08:07:44.236Z,101300.19
2023-06-30T08:10:19.829Z,101299.47
2023-06-30T08:12:48.031Z,101287.63
2023-06-30T08:15:16.297Z,101298.19
2023-06-30T08:17:54.543Z,101283.75
2023-06-30T08:20:28.488Z,101277.44
2023-06-30T08:22:56.862Z,101288.25
2023-06-30T08:25:27.559Z,101294.47
2023-06-30T08:27:55.647Z,101279.56
2023-06-30T08:30:25.365Z,101289.38
2023-06-30T08:32:57.185Z,101284.72
2023-06-30T08:35:26.241Z,101274.78
2023-06-30T08:37:54.720Z,101286.47
2023-06-30T08:40:23.905Z,101280.34
2023-06-30T08:42:54.134Z,101283.28
2023-06-30T08:45:23.138Z,101290.16
2023-06-30T08:47:51.247Z,101286.06
2023-06-30T08:50:22.682Z,101284.63
2023-06-30T08:52:51.938Z,101279.06
2023-06-30T08:55:20.001Z,101272.22
2023-06-30T08:57:53.132Z,101269.31
2023-06-30T09:00:24.065Z,101273.75
2023-06-30T09:02:52.636Z,101273.66
2023-06-30T09:05:20.854Z,101274.00
2023-06-30T09:07:52.324Z,101263.53
2023-06-30T09:10:20.597Z,101257.84
2023-06-30T09:12:49.035Z,101248.78
2023-06-30T09:15:18.235Z,101253.53
2023-06-30T09:17:56.964Z,101258.84
2023-06-30T09:20:31.381Z,101247.25
2023-06-30T09:23:00.950Z,101241.91
2023-06-30T09:25:45.193Z,101252.41
2023-06-30T09:28:15.742Z,101243.13
2023-06-30T09:30:48.081Z,101242.47
2023-06-30T09:33:18.391Z,101241.69
2023-06-30T09:35:47.965Z,101243.75
2023-06-30T09:38:17.999Z,101247.94
2023-06-30T09:40:51.092Z,101250.00
2023-06-30T09:43:19.896Z,101246.06
2023-06-30T09:45:50.400Z,101245.00
2023-06-30T09:48:21.584Z,101249.31
2023-06-30T09:50:55.667Z,101230.75
2023-06-30T09:53:27.734Z,101247.41
2023-06-30T09:55:56.379Z,101243.44
2023-06-30T09:58:38.219Z,101232.81
2023-06-30T10:01:07.362Z,101235.88
2023-06-30T10:03:37.867Z,101239.50
2023-06-30T10:06:11.958Z,101234.53
2023-06-30T10:11:09.304Z,101242.84
2023-06-30T10:13:37.785Z,101248.50
2023-06-30T10:16:09.496Z,101253.53
2023-06-30T10:18:45.716Z,101250.03
2023-06-30T10:21:13.909Z,101247.91
2023-06-30T10:23:44.875Z,101250.72
2023-06-30T10:26:20.790Z,101238.09
2023-06-30T10:28:53.048Z,101236.28
2023-06-30T10:31:22.912Z,101237.44
2023-06-30T10:33:55.430Z,101241.59
2023-06-30T10:36:25.152Z,101231.69
2023-06-30T10:38:55.506Z,101228.97
2023-06-30T10:41:23.716Z,101234.41
2023-06-30T10:44:09.438Z,101232.75
2023-06-30T10:46:47.850Z,101223.22
2023-06-30T10:49:37.453Z,101225.31
2023-06-30T10:52:07.763Z,101227.81
2023-06-30T10:54:40.505Z,101213.16
2023-06-30T10:57:10.788Z,101209.25
2023-06-30T10:59:40.488Z,101215.88
2023-06-30T11:02:14.848Z,101220.47
2023-06-30T11:04:45.298Z,101215.44
2023-06-30T11:07:18.570Z,101222.41
2023-06-30T11:09:59.956Z,101226.09
2023-06-30T11:12:28.915Z,101218.50
2023-06-30T11:14:59.914Z,101222.81
2023-06-30T11:17:30.298Z,101222.59
2023-06-30T11:20:12.582Z,101226.13
2023-06-30T11:22:41.564Z,101224.78
2023-06-30T11:25:12.442Z,101226.28
2023-06-30T11:27:42.902Z,101223.06
2023-06-30T11:30:12.549Z,101235.91
2023-06-30T11:32:41.821Z,101221.56
2023-06-30T11:35:23.793Z,101224.34
2023-06-30T11:37:53.502Z,101234.50
2023-06-30T11:40:25.609Z,101222.50
2023-06-30T11:42:54.471Z,101221.56
2023-06-30T11:45:28.553Z,101221.47
2023-06-30T11:47:58.002Z,101221.38
2023-06-30T11:50:27.567Z,101227.13
2023-06-30T11:55:39.173Z,101218.59
2023-06-30T11:58:09.988Z,101227.28
2023-06-30T12:00:38.468Z,101221.38
2023-06-30T12:03:07.484Z,101210.63
2023-06-30T12:05:46.532Z,101210.88
2023-06-30T12:08:14.868Z,101221.97
2023-06-30T12:10:43.004Z,101222.56
2023-06-30T12:13:11.354Z,101222.19
2023-06-30T12:15:39.427Z,101221.69
2023-06-30T12:18:09.553Z,101224.38
2023-06-30T12:20:44.397Z,101216.28
2023-06-30T12:23:12.954Z,101210.91
2023-06-30T12:25:41.268Z,101204.81
2023-06-30T12:28:13.702Z,101209.38
2023-06-30T12:30:42.269Z,101214.63
2023-06-30T12:33:13.334Z,101211.75
2023-06-30T12:35:42.946Z,101207.56
2023-06-30T12:38:14.332Z,101204.09
2023-06-30T12:40:42.674Z,101201.47
2023-06-30T12:43:10.669Z,101201.06
2023-06-30T12:45:39.036Z,101182.47
2023-06-30T12:48:08.107Z,101177.53
2023-06-30T12:50:36.295Z,101187.97
2023-06-30T12:53:06.921Z,101194.97
2023-06-30T12:55:38.633Z,101187.59
2023-06-30T12:58:07.261Z,101188.53
2023-06-30T13:00:37.862Z,101185.28
2023-06-30T13:03:06.413Z,101182.00
2023-06-30T13:05:34.834Z,101183.25
2023-06-30T13:08:06.480Z,101178.66
2023-06-30T13:10:35.047Z,101186.50
2023-06-30T13:13:03.323Z,101171.19
2023-06-30T13:15:33.626Z,101189.56
2023-06-30T13:18:02.074Z,101180.41
2023-06-30T13:20:31.483Z,101174.44
2023-06-30T13:23:12.303Z,101169.84
2023-06-30T13:25:56.038Z,101160.78
2023-06-30T13:28:28.912Z,101162.13
2023-06-30T13:30:58.289Z,101155.66
2023-06-30T13:33:27.938Z,101155.75
2023-06-30T13:35:56.825Z,101145.78
2023-06-30T13:38:24.859Z,101153.22
2023-06-30T13:40:54.417Z,101153.03
2023-06-30T13:43:23.653Z,101142.19
2023-06-30T13:45:52.378Z,101148.47
2023-06-30T13:48:20.428Z,101147.84
2023-06-30T13:50:48.587Z,101134.75
2023-06-30T13:53:17.065Z,101138.50
2023-06-30T13:55:46.832Z,101135.53
2023-06-30T13:58:16.330Z,101120.19
2023-06-30T14:00:47.894Z,101126.84
2023-06-30T14:03:18.160Z,101135.94
2023-06-30T14:05:50.661Z,101125.69
2023-06-30T14:08:19.261Z,101129.47
2023-06-30T14:10:49.870Z,101127.00
2023-06-30T14:13:19.416Z,101112.75
2023-06-30T14:15:48.094Z,101124.56
2023-06-30T14:18:19.366Z,101110.13
2023-06-30T14:20:51.295Z,101124.16
2023-06-30T14:23:21.334Z,101108.34
2023-06-30T14:25:51.613Z,101104.19
2023-06-30T14:28:21.092Z,101085.94
2023-06-30T14:30:49.362Z,101099.66
2023-06-30T14:33:17.749Z,101101.34
2023-06-30T14:35:46.441Z,101098.06
2023-06-30T14:38:15.840Z,101094.94
2023-06-30T14:40:44.602Z,101094.28
2023-06-30T14:43:14.638Z,101093.91
2023-06-30T14:45:49.244Z,101095.16
2023-06-30T14:48:18.615Z,101085.66
2023-06-30T14:50:49.632Z,101096.41
2023-06-30T14:53:17.881Z,101097.22
2023-06-30T14:55:51.623Z,101084.16
2023-06-30T14:58:20.252Z,101088.28
2023-06-30T15:00:53.618Z,101081.03
2023-06-30T15:03:21.836Z,101085.63
2023-06-30T15:05:50.384Z,101087.28
2023-06-30T15:08:20.407Z,101089.75
2023-06-30T15:10:49.087Z,101071.31
2023-06-30T15:13:18.004Z,101073.22
2023-06-30T15:15:54.667Z,101073.22
2023-06-30T15:18:26.928Z,101074.41
2023-06-30T15:20:55.811Z,101067.72
2023-06-30T15:23:24.288Z,101078.41
2023-06-30T15:25:53.841Z,101080.47
2023-06-30T15:28:24.788Z,101072.38
2023-06-30T15:30:55.812Z,101063.41
2023-06-30T15:33:25.422Z,101066.50
2023-06-30T15:35:53.892Z,101059.72
2023-06-30T15:38:22.288Z,101063.69
2023-06-30T15:40:59.703Z,101055.50
2023-06-30T15:43:33.200Z,101053.47
2023-06-30T15:46:04.035Z,101056.78
2023-06-30T15:48:34.709Z,101041.22
2023-06-30T15:51:04.571Z,101052.66
2023-06-30T15:53:33.173Z,101046.41
2023-06-30T15:56:05.282Z,101023.00
2023-06-30T15:58:39.594Z,101038.84
2023-06-30T16:01:08.839Z,101040.66
2023-06-30T16:03:39.234Z,101035.94
2023-06-30T16:06:07.551Z,101040.88
2023-06-30T16:08:37.599Z,101030.06
2023-06-30T16:11:05.870Z,101032.13
2023-06-30T16:13:33.901Z,101036.72
2023-06-30T16:16:01.960Z,101027.63
2023-06-30T16:18:29.999Z,101037.50
2023-06-30T16:20:59.439Z,101024.63
2023-06-30T16:23:27.404Z,101035.84
2023-06-30T16:25:55.395Z,101029.63
2023-06-30T16:28:23.346Z,101021.97
2023-06-30T16:30:51.468Z,101018.88
2023-06-30T16:33:19.708Z,101017.66
2023-06-30T16:35:48.141Z,101009.19
2023-06-30T16:38:17.938Z,101005.28
2023-06-30T16:40:45.980Z,101013.53
2023-06-30T16:43:13.954Z,101000.06
2023-06-30T16:45:41.994Z,101001.09
2023-06-30T16:48:10.058Z,101003.38
2023-06-30T16:50:38.074Z,100995.31
2023-06-30T16:53:06.057Z,100979.34
2023-06-30T16:55:35.453Z,100982.69
2023-06-30T16:58:03.417Z,100986.63
2023-06-30T17:00:31.459Z,100979.59
2023-06-30T17:02:59.603Z,100984.97
2023-06-30T17:05:27.751Z,100968.16
2023-06-30T17:07:55.873Z,100977.69
2023-06-30T17:10:23.837Z,100971.09
2023-06-30T17:12:53.232Z,100977.09
2023-06-30T17:15:21.300Z,100967.91
2023-06-30T17:17:49.275Z,100979.13
2023-06-30T17:20:17.408Z,100976.16
2023-06-30T17:22:45.381Z,100970.38
2023-06-30T17:25:13.381Z,100965.06
2023-06-30T17:27:41.358Z,100970.88
2023-06-30T17:30:12.378Z,100964.28
2023-06-30T17:32:40.434Z,100965.69
2023-06-30T17:35:09.241Z,100958.47
2023-06-30T17:37:37.262Z,100955.56
2023-06-30T17:40:06.131Z,100954.91
2023-06-30T17:42:34.145Z,100951.44
2023-06-30T17:45:02.126Z,100951.81
2023-06-30T17:47:31.546Z,100945.19
2023-06-30T17:50:01.528Z,100941.84
2023-06-30T17:52:29.628Z,100946.59
2023-06-30T17:54:57.609Z,100941.47
2023-06-30T17:57:25.669Z,100945.19
2023-06-30T17:59:53.759Z,100943.53
2023-06-30T18:02:21.812Z,100946.19
2023-06-30T18:04:51.651Z,100929.75
2023-06-30T18:07:19.762Z,100940.31
2023-06-30T18:09:47.957Z,100931.81
2023-06-30T18:12:16.156Z,100925.00
2023-06-30T18:14:44.202Z,100924.38
2023-06-30T18:17:12.218Z,100927.22
2023-06-30T18:19:41.103Z,100929.75
2023-06-30T18:22:10.502Z,100921.44
2023-06-30T18:24:38.588Z,100919.41
2023-06-30T18:27:06.998Z,100921.28
2023-06-30T18:29:35.035Z,100914.03
2023-06-30T18:32:03.147Z,100913.00
2023-06-30T18:34:31.161Z,100926.03
2023-06-30T18:36:59.191Z,100921.53
2023-06-30T18:39:28.521Z,100916.75
2023-06-30T18:41:56.906Z,100919.81
2023-06-30T18:44:26.094Z,100920.03
2023-06-30T18:46:54.331Z,100924.72
2023-06-30T18:49:24.860Z,100915.19
2023-06-30T18:51:55.342Z,100916.22
2023-06-30T18:54:23.680Z,100916.22
2023-06-30T18:56:53.162Z,100917.25
2023-06-30T18:59:21.369Z,100925.56
2023-06-30T19:01:49.542Z,100918.06
2023-06-30T19:04:17.997Z,100919.53
2023-06-30T19:06:46.189Z,100911.84
2023-06-30T19:09:14.518Z,100908.56
2023-06-30T19:11:42.502Z,100919.69
2023-06-30T19:14:11.951Z,100911.25
2023-06-30T19:16:40.009Z,100923.81
2023-06-30T19:19:08.031Z,100915.09
2023-06-30T19:21:36.064Z,100909.78
2023-06-30T19:24:04.122Z,100902.91
2023-06-30T19:26:32.264Z,100907.28
2023-06-30T19:29:00.306Z,100903.19
2023-06-30T19:31:32.186Z,100911.84
2023-06-30T19:34:00.215Z,100906.53
2023-06-30T19:36:32.717Z,100909.03
2023-06-30T19:39:01.169Z,100920.56
2023-06-30T19:41:31.517Z,100908.94
2023-06-30T19:43:59.581Z,100899.06
2023-06-30T19:46:30.600Z,100884.59
2023-06-30T19:48:58.811Z,100892.63
2023-06-30T19:51:27.282Z,100891.00
2023-06-30T19:53:55.304Z,100883.56
2023-06-30T19:56:23.315Z,100891.88
2023-06-30T19:58:51.326Z,100892.66
2023-06-30T20:01:21.139Z,100893.69
2023-06-30T20:03:50.628Z,100896.22
2023-06-30T20:06:18.630Z,100887.72
2023-06-30T20:08:46.819Z,100887.94
2023-06-30T20:11:14.818Z,100887.91
2023-06-30T20:13:42.780Z,100886.66
2023-06-30T20:16:11.051Z,100893.19
2023-06-30T20:18:39.048Z,100894.06
2023-06-30T20:21:08.434Z,100890.41
2023-06-30T20:23:36.482Z,100884.63
2023-06-30T20:26:04.518Z,100899.13
2023-06-30T20:28:32.549Z,100893.81
2023-06-30T20:31:00.783Z,100902.47
2023-06-30T20:33:29.119Z,100891.72
2023-06-30T20:35:57.422Z,100895.91
2023-06-30T20:38:26.875Z,100896.75
2023-06-30T20:40:54.845Z,100892.75
2023-06-30T20:43:22.845Z,100901.69
2023-06-30T20:45:50.846Z,100901.22
2023-06-30T20:48:18.898Z,100903.31
2023-06-30T20:50:47.490Z,100906.59
2023-06-30T20:53:15.649Z,100906.00
2023-06-30T20:55:45.004Z,100902.44
2023-06-30T20:58:13.062Z,100910.91
2023-06-30T21:00:41.061Z,100892.69
2023-06-30T21:03:10.229Z,100890.50
2023-06-30T21:05:38.588Z,100908.50
2023-06-30T21:08:06.649Z,100901.97
2023-06-30T21:10:34.787Z,100897.41
2023-06-30T21:13:04.207Z,100907.47
2023-06-30T21:15:32.235Z,100876.91
2023-06-30T21:18:00.334Z,100894.06
2023-06-30T21:20:28.469Z,100893.84
2023-06-30T21:22:56.523Z,100883.97
2023-06-30T21:25:24.621Z,100884.81
2023-06-30T21:27:52.669Z,100888.75
2023-06-30T21:30:22.091Z,100894.19
2023-06-30T21:32:50.091Z,100891.72
2023-06-30T21:35:18.194Z,100885.16
2023-06-30T21:37:46.293Z,100878.94
2023-06-30T21:40:15.627Z,100878.91
2023-06-30T21:42:45.512Z,100887.22
2023-06-30T21:45:13.555Z,100881.63
2023-06-30T21:47:42.980Z,100873.97
2023-06-30T21:50:11.943Z,100870.63
2023-06-30T21:52:39.950Z,100869.44
2023-06-30T21:55:08.623Z,100862.19
2023-06-30T21:57:36.689Z,100868.59
2023-06-30T22:00:06.209Z,100865.69
2023-06-30T22:02:34.602Z,100872.94
2023-06-30T22:05:04.278Z,100874.41
2023-06-30T22:07:32.288Z,100859.94
2023-06-30T22:10:00.790Z,100875.25
2023-06-30T22:12:28.797Z,100853.25
2023-06-30T22:14:56.836Z,100875.44
2023-06-30T22:17:24.842Z,100865.69
2023-06-30T22:19:52.951Z,100868.16
2023-06-30T22:22:22.290Z,100864.06
2023-06-30T22:24:50.303Z,100862.63
2023-06-30T22:27:18.289Z,100869.06
2023-06-30T22:29:46.437Z,100863.06
2023-06-30T22:32:14.709Z,100869.25
2023-06-30T22:34:42.790Z,100885.09
2023-06-30T22:37:10.908Z,100862.63
2023-06-30T22:39:40.313Z,100860.31
2023-06-30T22:42:08.629Z,100850.19
2023-06-30T22:44:36.834Z,100842.28
2023-06-30T22:47:05.295Z,100855.75
2023-06-30T22:49:33.359Z,100844.56
2023-06-30T22:52:01.396Z,100845.38
2023-06-30T22:54:29.479Z,100858.25
2023-06-30T22:56:58.866Z,100855.41
2023-06-30T22:59:26.940Z,100851.06
2023-06-30T23:01:55.047Z,100837.59
2023-06-30T23:04:23.259Z,100852.03
2023-06-30T23:06:51.306Z,100849.22
2023-06-30T23:09:19.290Z,100842.13
2023-06-30T23:11:47.284Z,100855.31
2023-06-30T23:14:17.881Z,100845.78
2023-06-30T23:16:47.376Z,100841.28
2023-06-30T23:19:16.353Z,100860.25
2023-06-30T23:21:45.330Z,100856.75
2023-06-30T23:24:13.522Z,100841.44
2023-06-30T23:26:42.094Z,100854.31
2023-06-30T23:29:10.646Z,100844.16
2023-06-30T23:31:40.275Z,100847.25
2023-06-30T23:34:08.609Z,100846.81
2023-06-30T23:36:37.304Z,100845.75
2023-06-30T23:39:05.794Z,100849.66
2023-06-30T23:41:33.952Z,100854.44
2023-06-30T23:44:02.526Z,100850.25
2023-06-30T23:46:31.610Z,100846.44
2023-06-30T23:49:01.189Z,100843.94
2023-06-30T23:51:29.219Z,100852.38
2023-06-30T23:53:57.343Z,100847.91
2023-06-30T23:56:25.324Z,100849.34
2023-06-30T23:58:53.338Z,100845.94
